createdAt,value
2022-10-17T00:03:32.979Z,86.45
2022-10-17T00:06:07.513Z,77.13
2022-10-17T00:08:35.668Z,113.57
2022-10-17T00:11:05.917Z,89.85
2022-10-17T00:13:36.285Z,91.97
2022-10-17T00:16:04.676Z,134.70
2022-10-17T00:18:32.689Z,107.90
2022-10-17T00:21:00.737Z,112.80
2022-10-17T00:23:30.350Z,130.35
2022-10-17T00:26:02.354Z,90.18
2022-10-17T00:28:30.778Z,131.55
2022-10-17T00:31:01.870Z,104.50
2022-10-17T00:33:30.878Z,100.10
2022-10-17T00:36:09.954Z,92.53
2022-10-17T00:38:38.489Z,78.20
2022-10-17T00:41:07.570Z,68.13
2022-10-17T00:43:55.107Z,73.32
2022-10-17T00:46:29.461Z,65.78
2022-10-17T00:49:00.117Z,69.78
2022-10-17T00:51:33.850Z,69.10
2022-10-17T00:54:03.880Z,91.32
2022-10-17T00:56:32.944Z,84.72
2022-10-17T00:59:01.272Z,72.70
2022-10-17T01:01:30.909Z,69.43
2022-10-17T01:03:59.152Z,64.07
2022-10-17T01:06:27.797Z,99.35
2022-10-17T01:08:56.710Z,92.43
2022-10-17T01:11:34.525Z,69.20
2022-10-17T01:14:10.830Z,81.60
2022-10-17T01:16:52.038Z,64.05
2022-10-17T01:19:47.776Z,99.78
2022-10-17T01:22:21.058Z,73.60
2022-10-17T01:25:02.545Z,99.70
2022-10-17T01:27:48.569Z,97.65
2022-10-17T01:30:45.329Z,92.45
2022-10-17T01:33:20.593Z,73.80
2022-10-17T01:35:55.965Z,100.97
2022-10-17T01:38:28.011Z,62.92
2022-10-17T01:41:02.973Z,67.65
2022-10-17T01:43:35.319Z,63.72
2022-10-17T01:46:11.293Z,67.78
2022-10-17T01:48:41.415Z,81.90
2022-10-17T01:51:13.439Z,59.72
2022-10-17T01:53:47.725Z,60.45
2022-10-17T01:56:17.073Z,74.53
2022-10-17T01:58:50.065Z,60.30
2022-10-17T02:01:20.876Z,64.95
2022-10-17T02:03:52.158Z,69.60
2022-10-17T02:06:20.320Z,103.00
2022-10-17T02:08:50.163Z,116.45
2022-10-17T02:11:20.533Z,80.00
2022-10-17T02:14:14.316Z,66.03
2022-10-17T02:16:50.797Z,91.18
2022-10-17T02:19:36.723Z,101.13
2022-10-17T02:22:15.727Z,99.50
2022-10-17T02:24:51.083Z,85.00
2022-10-17T02:27:33.661Z,74.25
2022-10-17T02:30:08.046Z,75.22
2022-10-17T02:32:46.726Z,82.15
2022-10-17T02:35:20.741Z,88.63
2022-10-17T02:37:49.859Z,79.53
2022-10-17T02:40:22.002Z,127.72
2022-10-17T02:42:52.449Z,99.22
2022-10-17T02:45:20.791Z,83.70
2022-10-17T02:47:56.758Z,122.10
2022-10-17T02:50:33.289Z,87.18
2022-10-17T02:53:06.958Z,128.65
2022-10-17T02:55:38.564Z,82.90
2022-10-17T02:58:11.898Z,90.07
2022-10-17T03:00:41.779Z,91.65
2022-10-17T03:03:22.620Z,78.93
2022-10-17T03:05:50.881Z,96.70
2022-10-17T03:08:19.221Z,82.60
2022-10-17T03:10:47.262Z,104.63
2022-10-17T03:13:15.502Z,84.38
2022-10-17T03:15:43.616Z,66.30
2022-10-17T03:18:11.882Z,109.40
2022-10-17T03:20:41.322Z,99.65
2022-10-17T03:23:09.604Z,104.15
2022-10-17T03:25:37.669Z,74.15
2022-10-17T03:28:06.222Z,81.80
2022-10-17T03:30:35.045Z,102.13
2022-10-17T03:33:03.053Z,73.43
2022-10-17T03:35:31.347Z,86.50
2022-10-17T03:38:00.778Z,111.88
2022-10-17T03:40:28.808Z,98.85
2022-10-17T03:42:57.354Z,74.95
2022-10-17T03:45:25.408Z,93.95
2022-10-17T03:47:53.803Z,73.07
2022-10-17T03:50:21.896Z,73.25
2022-10-17T03:52:50.716Z,95.05
2022-10-17T03:55:20.177Z,80.22
2022-10-17T03:57:48.219Z,88.55
2022-10-17T04:00:17.131Z,99.88
2022-10-17T04:02:45.709Z,99.70
2022-10-17T04:05:13.753Z,87.03
2022-10-17T04:07:41.800Z,96.20
2022-10-17T04:10:10.918Z,102.63
2022-10-17T04:12:40.554Z,107.50
2022-10-17T04:15:09.799Z,87.68
2022-10-17T04:17:38.331Z,103.28
2022-10-17T04:20:07.362Z,105.20
2022-10-17T04:22:35.545Z,67.93
2022-10-17T04:25:04.428Z,100.30
2022-10-17T04:27:32.531Z,93.78
2022-10-17T04:30:02.087Z,101.32
2022-10-17T04:34:58.467Z,85.88
2022-10-17T04:37:26.526Z,88.82
2022-10-17T04:39:54.717Z,81.15
2022-10-17T04:42:22.792Z,92.05
2022-10-17T04:44:50.878Z,115.13
2022-10-17T04:47:20.422Z,95.43
2022-10-17T04:52:17.365Z,100.00
2022-10-17T04:54:45.402Z,87.78
2022-10-17T04:57:13.638Z,109.57
2022-10-17T04:59:41.701Z,85.60
2022-10-17T05:02:09.780Z,87.97
2022-10-17T05:04:39.295Z,81.57
2022-10-17T05:09:35.288Z,81.00
2022-10-17T05:12:05.417Z,77.40
2022-10-17T05:14:36.099Z,77.63
2022-10-17T05:17:04.198Z,82.38
2022-10-17T05:19:32.200Z,80.38
2022-10-17T05:22:01.664Z,80.65
2022-10-17T05:24:29.823Z,84.32
2022-10-17T05:26:57.884Z,69.85
2022-10-17T05:29:25.957Z,73.70
2022-10-17T05:31:54.038Z,78.40
2022-10-17T05:34:22.109Z,79.40
2022-10-17T05:36:50.343Z,70.80
2022-10-17T05:39:20.143Z,73.97
2022-10-17T05:41:48.626Z,82.38
2022-10-17T05:44:16.807Z,80.80
2022-10-17T05:46:45.135Z,82.57
2022-10-17T05:49:19.614Z,70.88
2022-10-17T05:51:53.521Z,79.22
2022-10-17T05:54:22.957Z,83.32
2022-10-17T05:56:53.055Z,72.80
2022-10-17T05:59:21.705Z,76.55
2022-10-17T06:01:49.888Z,70.17
2022-10-17T06:04:18.025Z,72.75
2022-10-17T06:06:46.109Z,68.90
2022-10-17T06:09:14.772Z,82.35
2022-10-17T06:11:44.201Z,74.43
2022-10-17T06:14:12.275Z,72.22
2022-10-17T06:16:40.349Z,79.53
2022-10-17T06:19:08.502Z,92.40
2022-10-17T06:21:38.612Z,92.55
2022-10-17T06:24:06.771Z,66.45
2022-10-17T06:26:34.860Z,72.45
2022-10-17T06:29:04.498Z,68.30
2022-10-17T06:31:32.666Z,85.40
2022-10-17T06:34:00.738Z,64.50
2022-10-17T06:36:28.876Z,80.82
2022-10-17T06:38:56.965Z,69.25
2022-10-17T06:41:25.338Z,87.95
2022-10-17T06:43:53.609Z,73.57
2022-10-17T06:46:25.437Z,79.53
2022-10-17T06:48:53.613Z,73.38
2022-10-17T06:51:21.669Z,78.07
2022-10-17T06:53:49.699Z,80.57
2022-10-17T06:56:19.376Z,85.80
2022-10-17T06:58:49.377Z,93.95
2022-10-17T07:01:18.492Z,75.03
2022-10-17T07:03:49.706Z,86.50
2022-10-17T07:06:18.027Z,78.65
2022-10-17T07:08:47.009Z,81.38
2022-10-17T07:11:17.149Z,69.25
2022-10-17T07:13:45.743Z,82.45
2022-10-17T07:16:14.590Z,85.93
2022-10-17T07:18:43.025Z,89.82
2022-10-17T07:21:12.422Z,82.72
2022-10-17T07:23:41.610Z,80.40
2022-10-17T07:26:11.775Z,82.03
2022-10-17T07:28:41.853Z,68.60
2022-10-17T07:31:14.988Z,68.82
2022-10-17T07:33:43.552Z,72.07
2022-10-17T07:36:13.741Z,72.80
2022-10-17T07:38:42.354Z,63.83
2022-10-17T07:41:13.119Z,58.23
2022-10-17T07:43:43.033Z,64.15
2022-10-17T07:46:12.409Z,62.20
2022-10-17T07:48:41.368Z,66.43
2022-10-17T07:51:11.822Z,70.82
2022-10-17T07:53:42.752Z,70.70
2022-10-17T07:56:13.337Z,65.18
2022-10-17T07:58:41.424Z,64.68
2022-10-17T08:01:15.506Z,71.35
2022-10-17T08:03:45.835Z,74.82
2022-10-17T08:06:15.717Z,69.80
2022-10-17T08:08:44.305Z,70.10
2022-10-17T08:11:14.146Z,59.50
2022-10-17T08:13:42.858Z,64.95
2022-10-17T08:16:12.881Z,66.82
2022-10-17T08:18:42.723Z,59.75
2022-10-17T08:21:11.250Z,64.57
2022-10-17T08:23:40.973Z,61.50
2022-10-17T08:26:10.885Z,67.50
2022-10-17T08:28:40.140Z,58.42
2022-10-17T08:31:10.534Z,63.28
2022-10-17T08:33:39.377Z,65.13
2022-10-17T08:38:43.193Z,57.60
2022-10-17T08:41:20.781Z,58.50
2022-10-17T08:44:02.143Z,55.28
2022-10-17T08:46:33.658Z,61.90
2022-10-17T08:49:04.510Z,53.85
2022-10-17T08:51:37.856Z,62.97
2022-10-17T08:54:14.082Z,59.33
2022-10-17T08:56:49.567Z,69.60
2022-10-17T08:59:22.676Z,65.28
2022-10-17T09:01:58.365Z,60.25
2022-10-17T09:04:46.834Z,61.53
2022-10-17T09:07:21.202Z,62.13
2022-10-17T09:10:01.175Z,65.70
2022-10-17T09:12:41.606Z,65.00
2022-10-17T09:15:39.726Z,56.17
2022-10-17T09:18:15.879Z,57.95
2022-10-17T09:20:51.667Z,58.60
2022-10-17T09:23:23.668Z,58.63
2022-10-17T09:25:56.254Z,62.17
2022-10-17T09:28:31.843Z,58.80
2022-10-17T09:31:03.190Z,60.33
2022-10-17T09:33:53.429Z,60.42
2022-10-17T09:36:25.368Z,55.90
2022-10-17T09:38:55.464Z,57.40
2022-10-17T09:44:24.626Z,52.13
2022-10-17T09:47:11.192Z,52.88
2022-10-17T09:49:41.077Z,52.97
2022-10-17T09:52:15.001Z,53.13
2022-10-17T09:54:46.125Z,51.88
2022-10-17T09:57:15.844Z,47.40
2022-10-17T09:59:47.181Z,50.80
2022-10-17T10:02:22.045Z,53.13
2022-10-17T10:05:07.428Z,57.47
2022-10-17T10:07:38.138Z,59.08
2022-10-17T10:10:08.813Z,54.10
2022-10-17T10:12:38.788Z,53.30
2022-10-17T10:18:01.826Z,46.70
2022-10-17T10:20:34.117Z,52.28
2022-10-17T10:23:13.598Z,49.55
2022-10-17T10:28:19.298Z,54.65
2022-10-17T10:30:51.108Z,50.95
2022-10-17T10:33:23.259Z,53.40
2022-10-17T10:35:58.485Z,51.95
2022-10-17T10:38:26.870Z,51.75
2022-10-17T10:40:57.143Z,54.42
2022-10-17T10:43:36.937Z,56.72
2022-10-17T10:46:07.192Z,57.10
2022-10-17T10:48:38.028Z,56.35
2022-10-17T10:51:13.492Z,60.78
2022-10-17T10:53:48.359Z,56.45
2022-10-17T10:56:19.847Z,51.70
2022-10-17T10:58:54.650Z,51.10
2022-10-17T11:01:30.860Z,52.13
2022-10-17T11:04:14.479Z,54.15
2022-10-17T11:06:45.300Z,53.97
2022-10-17T11:09:24.482Z,50.28
2022-10-17T11:11:59.405Z,56.08
2022-10-17T11:14:38.114Z,51.28
2022-10-17T11:17:14.540Z,52.72
2022-10-17T11:19:49.790Z,51.03
2022-10-17T11:22:28.181Z,47.03
2022-10-17T11:25:00.794Z,46.85
2022-10-17T11:27:30.593Z,51.50
2022-10-17T11:29:59.507Z,50.10
2022-10-17T11:32:32.705Z,50.27
2022-10-17T11:35:06.726Z,47.85
2022-10-17T11:37:40.629Z,51.92
2022-10-17T11:40:19.205Z,50.78
2022-10-17T11:43:00.223Z,50.05
2022-10-17T11:45:31.868Z,50.88
2022-10-17T11:48:05.264Z,50.45
2022-10-17T11:53:28.320Z,51.38
2022-10-17T11:55:59.297Z,51.92
2022-10-17T11:58:38.551Z,54.47
2022-10-17T12:01:16.302Z,48.25
2022-10-17T12:04:06.339Z,49.53
2022-10-17T12:06:49.903Z,45.88
2022-10-17T12:09:26.067Z,48.13
2022-10-17T12:11:56.297Z,48.65
2022-10-17T12:14:40.666Z,51.10
2022-10-17T12:17:34.790Z,48.83
2022-10-17T12:20:28.723Z,46.20
2022-10-17T12:23:01.955Z,44.35
2022-10-17T12:25:33.589Z,44.72
2022-10-17T12:28:16.973Z,40.88
2022-10-17T12:30:53.538Z,42.67
2022-10-17T12:33:23.836Z,40.85
2022-10-17T12:36:13.372Z,43.55
2022-10-17T12:38:45.714Z,35.95
2022-10-17T12:41:15.980Z,41.85
2022-10-17T12:43:53.483Z,38.70
2022-10-17T12:46:57.423Z,36.88
2022-10-17T12:49:52.024Z,33.38
2022-10-17T12:52:24.981Z,36.28
2022-10-17T12:55:16.523Z,36.60
2022-10-17T12:57:52.352Z,35.08
2022-10-17T13:00:30.185Z,32.58
2022-10-17T13:03:05.269Z,30.90
2022-10-17T13:05:36.980Z,35.42
2022-10-17T13:08:07.884Z,30.58
2022-10-17T13:10:43.013Z,31.00
2022-10-17T13:13:17.465Z,27.55
2022-10-17T13:15:47.989Z,31.52
2022-10-17T13:18:21.845Z,32.45
2022-10-17T13:20:58.010Z,31.80
2022-10-17T13:23:27.039Z,31.13
2022-10-17T13:26:16.122Z,31.77
2022-10-17T13:28:44.438Z,30.25
2022-10-17T13:31:33.138Z,29.48
2022-10-17T13:34:02.976Z,27.92
2022-10-17T13:36:32.802Z,25.42
2022-10-17T13:39:07.618Z,26.80
2022-10-17T13:41:38.903Z,27.67
2022-10-17T13:44:14.742Z,28.40
2022-10-17T13:46:43.923Z,26.35
2022-10-17T13:49:18.959Z,25.83
2022-10-17T13:51:49.597Z,29.90
2022-10-17T13:54:40.176Z,25.77
2022-10-17T13:57:21.476Z,27.83
2022-10-17T13:59:52.513Z,30.20
2022-10-17T14:02:23.651Z,28.08
2022-10-17T14:05:16.721Z,30.60
2022-10-17T14:08:10.583Z,27.48
2022-10-17T14:10:41.228Z,30.60
2022-10-17T14:13:21.979Z,30.33
2022-10-17T14:15:51.051Z,30.52
2022-10-17T14:18:21.883Z,30.48
2022-10-17T14:21:32.118Z,34.28
2022-10-17T14:26:12.627Z,37.47
2022-10-17T14:28:44.535Z,34.17
2022-10-17T14:31:25.428Z,33.85
2022-10-17T14:33:54.662Z,34.03
2022-10-17T14:36:32.484Z,36.75
2022-10-17T14:39:01.875Z,34.08
2022-10-17T14:41:48.607Z,35.70
2022-10-17T14:44:30.128Z,38.08
2022-10-17T14:47:03.435Z,34.67
2022-10-17T14:52:27.762Z,36.53
2022-10-17T14:54:56.377Z,35.33
2022-10-17T14:57:27.659Z,34.88
2022-10-17T14:59:58.062Z,42.80
2022-10-17T15:02:27.388Z,39.95
2022-10-17T15:04:55.828Z,37.55
2022-10-17T15:07:24.577Z,37.83
2022-10-17T15:09:54.402Z,32.95
2022-10-17T15:12:24.771Z,36.03
2022-10-17T15:14:53.460Z,34.47
2022-10-17T15:17:25.846Z,33.47
2022-10-17T15:19:54.270Z,35.80
2022-10-17T15:22:22.307Z,41.67
2022-10-17T15:24:50.627Z,37.03
2022-10-17T15:27:20.091Z,34.60
2022-10-17T15:29:48.828Z,36.25
2022-10-17T15:32:17.632Z,38.40
2022-10-17T15:34:47.394Z,40.80
2022-10-17T15:37:20.730Z,35.75
2022-10-17T15:39:53.330Z,40.63
2022-10-17T15:42:22.979Z,39.20
2022-10-17T15:44:50.953Z,36.95
2022-10-17T15:47:25.300Z,40.33
2022-10-17T15:49:54.761Z,38.20
2022-10-17T15:54:50.825Z,42.05
2022-10-17T15:57:22.117Z,42.10
2022-10-17T15:59:51.871Z,48.30
2022-10-17T16:02:21.718Z,48.08
2022-10-17T16:04:51.008Z,45.85
2022-10-17T16:07:21.392Z,40.03
2022-10-17T16:09:49.661Z,44.50
2022-10-17T16:12:19.721Z,50.97
2022-10-17T16:14:47.885Z,49.38
2022-10-17T16:17:17.104Z,47.58
2022-10-17T16:19:45.423Z,55.92
2022-10-17T16:22:32.444Z,59.15
2022-10-17T16:25:07.789Z,59.05
2022-10-17T16:27:36.321Z,54.05
2022-10-17T16:30:05.722Z,45.72
2022-10-17T16:32:33.809Z,48.65
2022-10-17T16:35:01.881Z,43.28
2022-10-17T16:37:31.257Z,44.60
2022-10-17T16:39:59.429Z,47.33
2022-10-17T16:42:27.565Z,46.47
2022-10-17T16:44:55.689Z,44.47
2022-10-17T16:47:23.707Z,45.83
2022-10-17T16:49:51.727Z,45.80
2022-10-17T16:52:19.771Z,54.47
2022-10-17T16:54:49.137Z,48.63
2022-10-17T16:57:17.312Z,47.78
2022-10-17T16:59:45.384Z,45.88
2022-10-17T17:02:16.356Z,46.97
2022-10-17T17:04:47.507Z,45.55
2022-10-17T17:07:17.852Z,51.28
2022-10-17T17:09:45.850Z,44.83
2022-10-17T17:12:15.342Z,45.28
2022-10-17T17:17:19.475Z,55.55
2022-10-17T17:19:58.548Z,61.60
2022-10-17T17:22:26.609Z,56.13
2022-10-17T17:24:54.602Z,58.83
2022-10-17T17:27:25.085Z,55.67
2022-10-17T17:29:53.060Z,59.28
2022-10-17T17:32:21.000Z,60.25
2022-10-17T17:34:48.974Z,58.78
2022-10-17T17:37:17.059Z,53.38
2022-10-17T17:39:45.040Z,60.05
2022-10-17T17:42:13.053Z,58.70
2022-10-17T17:44:42.476Z,49.22
2022-10-17T17:47:10.487Z,49.05
2022-10-17T17:49:38.460Z,49.83
2022-10-17T17:52:06.550Z,48.58
2022-10-17T17:54:38.512Z,51.53
2022-10-17T17:57:08.904Z,54.13
2022-10-17T17:59:39.268Z,54.08
2022-10-17T18:02:08.885Z,48.70
2022-10-17T18:04:36.985Z,48.72
2022-10-17T18:07:13.312Z,50.65
2022-10-17T18:09:41.416Z,46.75
2022-10-17T18:12:09.599Z,41.15
2022-10-17T18:14:37.641Z,48.53
2022-10-17T18:17:05.608Z,49.25
2022-10-17T18:19:35.021Z,47.33
2022-10-17T18:22:03.225Z,51.70
2022-10-17T18:24:31.226Z,54.97
2022-10-17T18:26:59.958Z,58.80
2022-10-17T18:29:29.403Z,56.72
2022-10-17T18:31:57.481Z,50.67
2022-10-17T18:34:25.600Z,50.60
2022-10-17T18:36:54.961Z,53.53
2022-10-17T18:39:23.071Z,65.80
2022-10-17T18:41:51.089Z,52.47
2022-10-17T18:44:19.024Z,54.25
2022-10-17T18:46:47.166Z,60.75
2022-10-17T18:49:18.822Z,55.70
2022-10-17T18:51:47.367Z,65.07
2022-10-17T18:54:20.477Z,80.47
2022-10-17T18:56:48.597Z,69.70
2022-10-17T18:59:16.965Z,73.80
2022-10-17T19:01:44.987Z,128.73
2022-10-17T19:04:13.962Z,97.32
2022-10-17T19:06:42.768Z,69.30
2022-10-17T19:09:12.868Z,76.35
2022-10-17T19:11:43.057Z,72.93
2022-10-17T19:14:13.986Z,65.88
2022-10-17T19:16:44.555Z,60.13
2022-10-17T19:19:14.798Z,57.30
2022-10-17T19:21:43.171Z,51.42
2022-10-17T19:24:13.958Z,50.65
2022-10-17T19:26:44.643Z,55.25
2022-10-17T19:29:14.967Z,57.33
2022-10-17T19:31:43.351Z,52.95
2022-10-17T19:34:12.027Z,56.60
2022-10-17T19:36:40.389Z,54.35
2022-10-17T19:39:11.842Z,54.63
2022-10-17T19:41:41.385Z,59.35
2022-10-17T19:46:39.170Z,55.65
2022-10-17T19:49:07.794Z,56.00
2022-10-17T19:51:35.842Z,52.13
2022-10-17T19:54:03.997Z,58.42
2022-10-17T19:56:36.683Z,60.03
2022-10-17T19:59:06.033Z,57.08
2022-10-17T20:01:38.598Z,61.05
2022-10-17T20:04:06.948Z,66.70
2022-10-17T20:06:35.500Z,70.55
2022-10-17T20:09:03.962Z,60.03
2022-10-17T20:11:32.179Z,56.35
2022-10-17T20:14:01.454Z,54.30
2022-10-17T20:16:31.245Z,52.90
2022-10-17T20:19:06.687Z,60.88
2022-10-17T20:21:36.656Z,59.10
2022-10-17T20:24:06.940Z,62.80
2022-10-17T20:26:39.080Z,59.15
2022-10-17T20:29:17.398Z,62.72
2022-10-17T20:31:46.875Z,65.47
2022-10-17T20:36:45.003Z,60.65
2022-10-17T20:39:14.760Z,69.40
2022-10-17T20:41:43.309Z,56.95
2022-10-17T20:44:12.040Z,61.13
2022-10-17T20:46:45.241Z,62.97
2022-10-17T20:49:22.185Z,65.68
2022-10-17T20:51:50.241Z,64.43
2022-10-17T20:54:18.225Z,65.38
2022-10-17T20:56:46.239Z,63.75
2022-10-17T20:59:16.983Z,60.35
2022-10-17T21:01:46.102Z,55.40
2022-10-17T21:04:44.930Z,60.45
2022-10-17T21:07:04.134Z,54.78
2022-10-17T21:14:36.284Z,58.22
2022-10-17T21:17:05.520Z,53.25
2022-10-17T21:19:33.683Z,54.55
2022-10-17T21:22:03.241Z,53.85
2022-10-17T21:26:59.479Z,48.30
2022-10-17T21:29:27.598Z,56.05
2022-10-17T21:31:55.585Z,61.60
2022-10-17T21:34:25.515Z,59.25
2022-10-17T21:36:53.775Z,58.50
2022-10-17T21:39:24.692Z,57.88
2022-10-17T21:41:52.991Z,58.78
2022-10-17T21:44:22.544Z,52.90
2022-10-17T21:49:20.396Z,52.95
2022-10-17T21:51:49.564Z,52.25
2022-10-17T21:54:18.997Z,52.40
2022-10-17T21:56:48.332Z,57.38
2022-10-17T21:59:16.859Z,53.67
2022-10-17T22:01:46.708Z,50.05
2022-10-17T22:04:16.347Z,51.08
2022-10-17T22:09:16.260Z,50.47
2022-10-17T22:11:47.088Z,51.05
2022-10-17T22:14:18.401Z,60.10
2022-10-17T22:16:47.619Z,62.72
2022-10-17T22:19:17.393Z,52.25
2022-10-17T22:21:45.785Z,50.15
2022-10-17T22:24:15.973Z,52.13
2022-10-17T22:26:44.485Z,50.20
2022-10-17T22:29:12.907Z,51.63
2022-10-17T22:31:42.499Z,52.63
2022-10-17T22:36:39.470Z,50.10
2022-10-17T22:39:07.425Z,52.88
2022-10-17T22:41:35.729Z,52.22
2022-10-17T22:44:04.311Z,55.03
2022-10-17T22:46:32.416Z,51.13
2022-10-17T22:49:02.027Z,50.78
2022-10-17T22:53:58.068Z,46.78
2022-10-17T22:56:26.134Z,47.67
2022-10-17T22:58:54.778Z,45.78
2022-10-17T23:01:26.121Z,50.40
2022-10-17T23:03:54.218Z,45.40
2022-10-17T23:06:24.204Z,41.65
2022-10-17T23:08:52.423Z,42.67
2022-10-17T23:11:21.183Z,47.75
2022-10-17T23:13:49.360Z,50.70
2022-10-17T23:16:17.869Z,45.08
2022-10-17T23:18:45.893Z,45.25
2022-10-17T23:21:14.041Z,42.28
2022-10-17T23:23:43.408Z,44.58
2022-10-17T23:26:13.159Z,39.08
2022-10-17T23:28:42.037Z,43.15
2022-10-17T23:31:12.334Z,39.75
2022-10-17T23:33:41.386Z,44.67
2022-10-17T23:36:11.015Z,40.47
2022-10-17T23:38:39.194Z,53.42
2022-10-17T23:41:09.051Z,48.60
2022-10-17T23:43:37.304Z,46.30
2022-10-17T23:46:06.712Z,44.45
2022-10-17T23:48:35.202Z,45.97
2022-10-17T23:51:03.171Z,43.97
2022-10-17T23:53:31.647Z,42.83
2022-10-17T23:55:59.648Z,44.10
2022-10-17T23:58:29.160Z,45.70
